sensor_id;sensor_type;location;lat;lon;timestamp;temperature;humidity
19728;DHT22;10015;52.530;13.390;2023-12-07T00:01:15;3.40;99.90
19728;DHT22;10015;52.530;13.390;2023-12-07T00:03:42;3.50;99.90
19728;DHT22;10015;52.530;13.390;2023-12-07T00:06:08;3.50;99.90
19728;DHT22;10015;52.530;13.390;2023-12-07T00:08:34;3.40;99.90
19728;DHT22;10015;52.530;13.390;2023-12-07T00:10:59;3.40;99.90
19728;DHT22;10015;52.530;13.390;2023-12-07T00:13:25;3.40;99.90
19728;DHT22;10015;52.530;13.390;2023-12-07T00:15:52;3.30;99.90
19728;DHT22;10015;52.530;13.390;2023-12-07T00:18:19;3.20;99.90
19728;DHT22;10015;52.530;13.390;2023-12-07T00:20:45;3.20;99.90
19728;DHT22;10015;52.530;13.390;2023-12-07T00:23:11;3.30;99.90
19728;DHT22;10015;52.530;13.390;2023-12-07T00:25:37;3.40;99.90
19728;DHT22;10015;52.530;13.390;2023-12-07T00:28:04;3.40;99.90
19728;DHT22;10015;52.530;13.390;2023-12-07T00:30:30;3.40;99.90
19728;DHT22;10015;52.530;13.390;2023-12-07T00:32:57;3.50;99.90
19728;DHT22;10015;52.530;13.390;2023-12-07T00:35:23;3.30;99.90
19728;DHT22;10015;52.530;13.390;2023-12-07T00:37:49;3.30;99.90
19728;DHT22;10015;52.530;13.390;2023-12-07T00:40:15;3.40;99.90
19728;DHT22;10015;52.530;13.390;2023-12-07T00:42:42;3.40;99.90
19728;DHT22;10015;52.530;13.390;2023-12-07T00:45:09;3.40;99.90
19728;DHT22;10015;52.530;13.390;2023-12-07T00:47:36;3.40;99.90
19728;DHT22;10015;52.530;13.390;2023-12-07T00:50:02;3.40;99.90
19728;DHT22;10015;52.530;13.390;2023-12-07T00:52:29;3.30;99.90
19728;DHT22;10015;52.530;13.390;2023-12-07T00:54:55;3.40;99.90
19728;DHT22;10015;52.530;13.390;2023-12-07T00:57:21;3.40;99.90
19728;DHT22;10015;52.530;13.390;2023-12-07T00:59:47;3.30;99.90
19728;DHT22;10015;52.530;13.390;2023-12-07T01:02:13;3.40;99.90
19728;DHT22;10015;52.530;13.390;2023-12-07T01:04:39;3.40;99.90
19728;DHT22;10015;52.530;13.390;2023-12-07T01:07:05;3.40;99.90
19728;DHT22;10015;52.530;13.390;2023-12-07T01:09:31;3.40;99.90
19728;DHT22;10015;52.530;13.390;2023-12-07T01:11:59;3.50;99.90
19728;DHT22;10015;52.530;13.390;2023-12-07T01:14:25;3.50;99.90
19728;DHT22;10015;52.530;13.390;2023-12-07T01:16:52;3.40;99.90
19728;DHT22;10015;52.530;13.390;2023-12-07T01:19:18;3.50;99.90
19728;DHT22;10015;52.530;13.390;2023-12-07T01:21:44;3.50;99.90
19728;DHT22;10015;52.530;13.390;2023-12-07T01:24:10;3.50;99.90
19728;DHT22;10015;52.530;13.390;2023-12-07T01:26:36;3.50;99.90
19728;DHT22;10015;52.530;13.390;2023-12-07T01:29:02;3.50;99.90
19728;DHT22;10015;52.530;13.390;2023-12-07T01:31:29;3.50;99.90
19728;DHT22;10015;52.530;13.390;2023-12-07T01:33:55;3.30;99.90
19728;DHT22;10015;52.530;13.390;2023-12-07T01:36:21;3.30;99.90
19728;DHT22;10015;52.530;13.390;2023-12-07T01:38:47;3.30;99.90
19728;DHT22;10015;52.530;13.390;2023-12-07T01:41:13;3.40;99.90
19728;DHT22;10015;52.530;13.390;2023-12-07T01:43:47;3.50;99.90
19728;DHT22;10015;52.530;13.390;2023-12-07T01:46:13;3.50;99.90
19728;DHT22;10015;52.530;13.390;2023-12-07T01:48:41;3.50;99.90
19728;DHT22;10015;52.530;13.390;2023-12-07T01:51:09;3.50;99.90
19728;DHT22;10015;52.530;13.390;2023-12-07T01:53:38;3.50;99.90
19728;DHT22;10015;52.530;13.390;2023-12-07T01:56:05;3.50;99.90
19728;DHT22;10015;52.530;13.390;2023-12-07T01:58:34;3.60;99.90
19728;DHT22;10015;52.530;13.390;2023-12-07T02:01:01;3.60;99.90
19728;DHT22;10015;52.530;13.390;2023-12-07T02:03:28;3.60;99.90
19728;DHT22;10015;52.530;13.390;2023-12-07T02:05:58;3.60;99.90
19728;DHT22;10015;52.530;13.390;2023-12-07T02:08:24;3.50;99.90
19728;DHT22;10015;52.530;13.390;2023-12-07T02:10:52;3.50;99.90
19728;DHT22;10015;52.530;13.390;2023-12-07T02:13:21;3.50;99.90
19728;DHT22;10015;52.530;13.390;2023-12-07T02:15:47;3.50;99.90
19728;DHT22;10015;52.530;13.390;2023-12-07T02:18:34;3.50;99.90
19728;DHT22;10015;52.530;13.390;2023-12-07T02:21:13;3.40;99.90
19728;DHT22;10015;52.530;13.390;2023-12-07T02:23:42;3.30;99.90
19728;DHT22;10015;52.530;13.390;2023-12-07T02:26:10;3.30;99.90
19728;DHT22;10015;52.530;13.390;2023-12-07T02:28:37;3.40;99.90
19728;DHT22;10015;52.530;13.390;2023-12-07T02:31:03;3.40;99.90
19728;DHT22;10015;52.530;13.390;2023-12-07T02:33:29;3.40;99.90
19728;DHT22;10015;52.530;13.390;2023-12-07T02:35:55;3.50;99.90
19728;DHT22;10015;52.530;13.390;2023-12-07T02:38:25;3.50;99.90
19728;DHT22;10015;52.530;13.390;2023-12-07T02:40:54;3.50;99.90
19728;DHT22;10015;52.530;13.390;2023-12-07T02:43:21;3.50;99.90
19728;DHT22;10015;52.530;13.390;2023-12-07T02:45:48;3.50;99.90
19728;DHT22;10015;52.530;13.390;2023-12-07T02:48:14;3.50;99.90
19728;DHT22;10015;52.530;13.390;2023-12-07T02:50:40;3.50;99.90
19728;DHT22;10015;52.530;13.390;2023-12-07T02:53:06;3.50;99.90
19728;DHT22;10015;52.530;13.390;2023-12-07T02:55:32;3.50;99.90
19728;DHT22;10015;52.530;13.390;2023-12-07T02:57:57;3.60;99.90
19728;DHT22;10015;52.530;13.390;2023-12-07T03:00:24;3.60;99.90
19728;DHT22;10015;52.530;13.390;2023-12-07T03:02:50;3.60;99.90
19728;DHT22;10015;52.530;13.390;2023-12-07T03:05:16;3.60;99.90
19728;DHT22;10015;52.530;13.390;2023-12-07T03:07:42;3.60;99.90
19728;DHT22;10015;52.530;13.390;2023-12-07T03:10:08;3.60;99.90
19728;DHT22;10015;52.530;13.390;2023-12-07T03:12:37;3.60;99.90
19728;DHT22;10015;52.530;13.390;2023-12-07T03:15:03;3.60;99.90
19728;DHT22;10015;52.530;13.390;2023-12-07T03:17:30;3.60;99.90
19728;DHT22;10015;52.530;13.390;2023-12-07T03:19:55;3.60;99.90
19728;DHT22;10015;52.530;13.390;2023-12-07T03:22:21;3.60;99.90
19728;DHT22;10015;52.530;13.390;2023-12-07T03:24:51;3.60;99.90
19728;DHT22;10015;52.530;13.390;2023-12-07T03:27:17;3.60;99.90
19728;DHT22;10015;52.530;13.390;2023-12-07T03:29:43;3.70;99.90
19728;DHT22;10015;52.530;13.390;2023-12-07T03:32:09;3.70;99.90
19728;DHT22;10015;52.530;13.390;2023-12-07T03:34:35;3.70;99.90
19728;DHT22;10015;52.530;13.390;2023-12-07T03:37:01;3.70;99.90
19728;DHT22;10015;52.530;13.390;2023-12-07T03:39:28;3.70;99.90
19728;DHT22;10015;52.530;13.390;2023-12-07T03:41:55;3.60;99.90
19728;DHT22;10015;52.530;13.390;2023-12-07T03:44:21;3.60;99.90
19728;DHT22;10015;52.530;13.390;2023-12-07T03:46:47;3.60;99.90
19728;DHT22;10015;52.530;13.390;2023-12-07T03:49:13;3.60;99.90
19728;DHT22;10015;52.530;13.390;2023-12-07T03:51:38;3.60;99.90
19728;DHT22;10015;52.530;13.390;2023-12-07T03:54:04;3.60;99.90
19728;DHT22;10015;52.530;13.390;2023-12-07T03:56:32;3.60;99.90
19728;DHT22;10015;52.530;13.390;2023-12-07T03:58:58;3.60;99.90
19728;DHT22;10015;52.530;13.390;2023-12-07T04:01:24;3.60;99.90
19728;DHT22;10015;52.530;13.390;2023-12-07T04:03:51;3.60;99.90
19728;DHT22;10015;52.530;13.390;2023-12-07T04:06:17;3.60;99.90
19728;DHT22;10015;52.530;13.390;2023-12-07T04:08:44;3.60;99.90
19728;DHT22;10015;52.530;13.390;2023-12-07T04:11:13;3.50;99.90
19728;DHT22;10015;52.530;13.390;2023-12-07T04:13:40;3.40;99.90
19728;DHT22;10015;52.530;13.390;2023-12-07T04:16:06;3.40;99.90
19728;DHT22;10015;52.530;13.390;2023-12-07T04:18:32;3.40;99.90
19728;DHT22;10015;52.530;13.390;2023-12-07T04:20:58;3.40;99.90
19728;DHT22;10015;52.530;13.390;2023-12-07T04:23:24;3.40;99.90
19728;DHT22;10015;52.530;13.390;2023-12-07T04:25:51;3.50;99.90
19728;DHT22;10015;52.530;13.390;2023-12-07T04:28:17;3.40;99.90
19728;DHT22;10015;52.530;13.390;2023-12-07T04:30:43;3.50;99.90
19728;DHT22;10015;52.530;13.390;2023-12-07T04:33:09;3.60;99.90
19728;DHT22;10015;52.530;13.390;2023-12-07T04:35:35;3.60;99.90
19728;DHT22;10015;52.530;13.390;2023-12-07T04:38:02;3.60;99.90
19728;DHT22;10015;52.530;13.390;2023-12-07T04:40:28;3.60;99.90
19728;DHT22;10015;52.530;13.390;2023-12-07T04:42:53;3.60;99.90
19728;DHT22;10015;52.530;13.390;2023-12-07T04:45:19;3.60;99.90
19728;DHT22;10015;52.530;13.390;2023-12-07T04:47:45;3.70;99.90
19728;DHT22;10015;52.530;13.390;2023-12-07T04:50:12;3.70;99.90
19728;DHT22;10015;52.530;13.390;2023-12-07T04:52:38;3.60;99.90
19728;DHT22;10015;52.530;13.390;2023-12-07T04:55:05;3.50;99.90
19728;DHT22;10015;52.530;13.390;2023-12-07T04:57:34;3.60;99.90
19728;DHT22;10015;52.530;13.390;2023-12-07T05:00:00;3.60;99.90
19728;DHT22;10015;52.530;13.390;2023-12-07T05:02:28;3.60;99.90
19728;DHT22;10015;52.530;13.390;2023-12-07T05:04:53;3.50;99.90
19728;DHT22;10015;52.530;13.390;2023-12-07T05:07:20;3.40;99.90
19728;DHT22;10015;52.530;13.390;2023-12-07T05:09:45;3.40;99.90
19728;DHT22;10015;52.530;13.390;2023-12-07T05:12:11;3.30;99.90
19728;DHT22;10015;52.530;13.390;2023-12-07T05:14:37;3.40;99.90
19728;DHT22;10015;52.530;13.390;2023-12-07T05:17:03;3.50;99.90
19728;DHT22;10015;52.530;13.390;2023-12-07T05:19:30;3.50;99.90
19728;DHT22;10015;52.530;13.390;2023-12-07T05:21:56;3.50;99.90
19728;DHT22;10015;52.530;13.390;2023-12-07T05:24:22;3.40;99.90
19728;DHT22;10015;52.530;13.390;2023-12-07T05:26:48;3.40;99.90
19728;DHT22;10015;52.530;13.390;2023-12-07T05:29:17;3.30;99.90
19728;DHT22;10015;52.530;13.390;2023-12-07T05:31:43;3.30;99.90
19728;DHT22;10015;52.530;13.390;2023-12-07T05:34:09;3.30;99.90
19728;DHT22;10015;52.530;13.390;2023-12-07T05:36:35;3.30;99.90
19728;DHT22;10015;52.530;13.390;2023-12-07T05:39:01;3.40;99.90
19728;DHT22;10015;52.530;13.390;2023-12-07T05:41:28;3.50;99.90
19728;DHT22;10015;52.530;13.390;2023-12-07T05:43:54;3.50;99.90
19728;DHT22;10015;52.530;13.390;2023-12-07T05:46:20;3.50;99.90
19728;DHT22;10015;52.530;13.390;2023-12-07T05:48:46;3.50;99.90
19728;DHT22;10015;52.530;13.390;2023-12-07T05:51:18;3.60;99.90
19728;DHT22;10015;52.530;13.390;2023-12-07T05:53:46;3.60;99.90
19728;DHT22;10015;52.530;13.390;2023-12-07T05:56:12;3.50;99.90
19728;DHT22;10015;52.530;13.390;2023-12-07T05:58:38;3.60;99.90
19728;DHT22;10015;52.530;13.390;2023-12-07T06:01:05;3.60;99.90
19728;DHT22;10015;52.530;13.390;2023-12-07T06:03:31;3.50;99.90
19728;DHT22;10015;52.530;13.390;2023-12-07T06:05:57;3.60;99.90
19728;DHT22;10015;52.530;13.390;2023-12-07T06:08:23;3.50;99.90
19728;DHT22;10015;52.530;13.390;2023-12-07T06:10:50;3.50;99.90
19728;DHT22;10015;52.530;13.390;2023-12-07T06:13:15;3.50;99.90
19728;DHT22;10015;52.530;13.390;2023-12-07T06:15:41;3.50;99.90
19728;DHT22;10015;52.530;13.390;2023-12-07T06:18:07;3.50;99.90
19728;DHT22;10015;52.530;13.390;2023-12-07T06:20:33;3.60;99.90
19728;DHT22;10015;52.530;13.390;2023-12-07T06:23:00;3.60;99.90
19728;DHT22;10015;52.530;13.390;2023-12-07T06:25:27;3.60;99.90
19728;DHT22;10015;52.530;13.390;2023-12-07T06:27:54;3.60;99.90
19728;DHT22;10015;52.530;13.390;2023-12-07T06:30:21;3.60;99.90
19728;DHT22;10015;52.530;13.390;2023-12-07T06:32:47;3.70;99.90
19728;DHT22;10015;52.530;13.390;2023-12-07T06:35:13;3.70;99.90
19728;DHT22;10015;52.530;13.390;2023-12-07T06:37:39;3.70;99.90
19728;DHT22;10015;52.530;13.390;2023-12-07T06:40:10;3.70;99.90
19728;DHT22;10015;52.530;13.390;2023-12-07T06:42:36;3.70;99.90
19728;DHT22;10015;52.530;13.390;2023-12-07T06:45:02;3.70;99.90
19728;DHT22;10015;52.530;13.390;2023-12-07T06:47:31;3.70;99.90
19728;DHT22;10015;52.530;13.390;2023-12-07T06:49:57;3.80;99.90
19728;DHT22;10015;52.530;13.390;2023-12-07T06:52:23;3.70;99.90
19728;DHT22;10015;52.530;13.390;2023-12-07T06:54:50;3.70;99.90
19728;DHT22;10015;52.530;13.390;2023-12-07T06:57:16;3.60;99.90
19728;DHT22;10015;52.530;13.390;2023-12-07T06:59:41;3.60;99.90
19728;DHT22;10015;52.530;13.390;2023-12-07T07:02:07;3.60;99.90
19728;DHT22;10015;52.530;13.390;2023-12-07T07:04:33;3.50;99.90
19728;DHT22;10015;52.530;13.390;2023-12-07T07:06:59;3.60;99.90
19728;DHT22;10015;52.530;13.390;2023-12-07T07:09:25;3.60;99.90
19728;DHT22;10015;52.530;13.390;2023-12-07T07:11:51;3.60;99.90
19728;DHT22;10015;52.530;13.390;2023-12-07T07:14:17;3.60;99.90
19728;DHT22;10015;52.530;13.390;2023-12-07T07:16:44;3.60;99.90
19728;DHT22;10015;52.530;13.390;2023-12-07T07:19:10;3.70;99.90
19728;DHT22;10015;52.530;13.390;2023-12-07T07:21:36;3.70;99.90
19728;DHT22;10015;52.530;13.390;2023-12-07T07:24:02;3.60;99.90
19728;DHT22;10015;52.530;13.390;2023-12-07T07:26:28;3.60;99.90
19728;DHT22;10015;52.530;13.390;2023-12-07T07:28:54;3.70;99.90
19728;DHT22;10015;52.530;13.390;2023-12-07T07:31:20;3.70;99.90
19728;DHT22;10015;52.530;13.390;2023-12-07T07:33:46;3.70;99.90
19728;DHT22;10015;52.530;13.390;2023-12-07T07:36:15;3.70;99.90
19728;DHT22;10015;52.530;13.390;2023-12-07T07:38:41;3.80;99.90
19728;DHT22;10015;52.530;13.390;2023-12-07T07:41:08;3.80;99.90
19728;DHT22;10015;52.530;13.390;2023-12-07T07:43:33;3.80;99.90
19728;DHT22;10015;52.530;13.390;2023-12-07T07:46:03;3.70;99.90
19728;DHT22;10015;52.530;13.390;2023-12-07T07:48:30;3.70;99.90
19728;DHT22;10015;52.530;13.390;2023-12-07T07:50:57;3.60;99.90
19728;DHT22;10015;52.530;13.390;2023-12-07T07:53:23;3.60;99.90
19728;DHT22;10015;52.530;13.390;2023-12-07T07:55:49;3.60;99.90
19728;DHT22;10015;52.530;13.390;2023-12-07T07:58:15;3.60;99.90
19728;DHT22;10015;52.530;13.390;2023-12-07T08:00:41;3.70;99.90
19728;DHT22;10015;52.530;13.390;2023-12-07T08:03:08;3.70;99.90
19728;DHT22;10015;52.530;13.390;2023-12-07T08:05:39;3.70;99.90
19728;DHT22;10015;52.530;13.390;2023-12-07T08:08:08;3.70;99.90
19728;DHT22;10015;52.530;13.390;2023-12-07T08:10:35;3.60;99.90
19728;DHT22;10015;52.530;13.390;2023-12-07T08:13:01;3.60;99.90
19728;DHT22;10015;52.530;13.390;2023-12-07T08:15:27;3.50;99.90
19728;DHT22;10015;52.530;13.390;2023-12-07T08:17:53;3.60;99.90
19728;DHT22;10015;52.530;13.390;2023-12-07T08:20:19;3.50;99.90
19728;DHT22;10015;52.530;13.390;2023-12-07T08:22:45;3.50;99.90
19728;DHT22;10015;52.530;13.390;2023-12-07T08:25:12;3.60;99.90
19728;DHT22;10015;52.530;13.390;2023-12-07T08:27:39;3.60;99.90
19728;DHT22;10015;52.530;13.390;2023-12-07T08:30:06;3.60;99.90
19728;DHT22;10015;52.530;13.390;2023-12-07T08:32:35;3.60;99.90
19728;DHT22;10015;52.530;13.390;2023-12-07T08:35:02;3.70;99.90
19728;DHT22;10015;52.530;13.390;2023-12-07T08:37:31;3.80;99.90
19728;DHT22;10015;52.530;13.390;2023-12-07T08:39:59;3.80;99.90
19728;DHT22;10015;52.530;13.390;2023-12-07T08:42:25;3.80;99.90
19728;DHT22;10015;52.530;13.390;2023-12-07T08:44:53;3.90;99.90
19728;DHT22;10015;52.530;13.390;2023-12-07T08:47:19;3.90;99.90
19728;DHT22;10015;52.530;13.390;2023-12-07T08:49:45;3.90;99.90
19728;DHT22;10015;52.530;13.390;2023-12-07T08:52:12;3.90;99.90
19728;DHT22;10015;52.530;13.390;2023-12-07T08:54:38;3.90;99.90
19728;DHT22;10015;52.530;13.390;2023-12-07T08:57:04;4.00;99.90
